createdAt,value
2023-03-04T00:01:43.266Z,31.01
2023-03-04T00:06:50.381Z,30.91
2023-03-04T00:11:57.568Z,31.01
2023-03-04T00:17:04.766Z,30.94
2023-03-04T00:22:11.936Z,30.82
2023-03-04T00:27:19.137Z,30.83
2023-03-04T00:32:26.426Z,30.81
2023-03-04T00:37:33.484Z,31.02
2023-03-04T00:42:40.664Z,30.76
2023-03-04T00:47:47.873Z,30.77
2023-03-04T00:52:55.056Z,30.56
2023-03-04T00:58:02.440Z,30.68
2023-03-04T01:03:09.861Z,30.93
2023-03-04T01:08:17.232Z,30.55
2023-03-04T01:13:24.646Z,30.45
2023-03-04T01:18:32.160Z,30.37
2023-03-04T01:23:39.602Z,30.27
2023-03-04T01:28:50.359Z,30.30
2023-03-04T01:33:58.068Z,30.28
2023-03-04T01:39:10.232Z,30.30
2023-03-04T01:44:17.695Z,30.37
2023-03-04T01:49:25.444Z,30.40
2023-03-04T01:54:33.104Z,30.43
2023-03-04T01:59:40.559Z,30.40
2023-03-04T02:04:48.093Z,30.44
2023-03-04T02:09:57.065Z,30.44
2023-03-04T02:15:05.351Z,30.50
2023-03-04T02:20:12.685Z,30.55
2023-03-04T02:25:19.921Z,30.46
2023-03-04T02:30:27.135Z,30.56
2023-03-04T02:35:34.493Z,30.67
2023-03-04T02:40:41.588Z,30.57
2023-03-04T02:45:48.767Z,30.56
2023-03-04T02:50:55.954Z,30.66
2023-03-04T02:56:03.151Z,30.82
2023-03-04T03:01:10.381Z,30.96
2023-03-04T03:06:17.630Z,31.13
2023-03-04T03:11:26.605Z,31.31
2023-03-04T03:16:32.018Z,31.53
2023-03-04T03:21:39.200Z,31.59
2023-03-04T03:26:46.510Z,31.72
2023-03-04T03:31:53.970Z,31.84
2023-03-04T03:37:01.315Z,31.88
2023-03-04T03:42:08.708Z,32.02
2023-03-04T03:47:25.264Z,32.14
2023-03-04T03:52:28.047Z,32.21
2023-03-04T03:57:35.412Z,32.26
2023-03-04T04:02:42.983Z,32.36
2023-03-04T04:07:50.643Z,32.46
2023-03-04T04:12:57.622Z,32.46
2023-03-04T04:18:04.987Z,32.43
2023-03-04T04:23:12.265Z,32.49
2023-03-04T04:28:19.619Z,32.55
2023-03-04T04:33:26.873Z,32.54
2023-03-04T04:38:37.929Z,32.57
2023-03-04T04:43:45.251Z,32.59
2023-03-04T04:48:52.601Z,32.56
2023-03-04T04:54:00.035Z,32.59
2023-03-04T04:59:07.353Z,32.65
2023-03-04T05:04:14.780Z,32.69
2023-03-04T05:09:24.102Z,32.75
2023-03-04T05:14:31.437Z,32.70
2023-03-04T05:19:38.723Z,32.70
2023-03-04T05:24:46.157Z,32.75
2023-03-04T05:29:53.470Z,32.71
2023-03-04T05:35:00.783Z,32.68
2023-03-04T05:40:08.350Z,32.73
2023-03-04T05:45:15.695Z,32.61
2023-03-04T05:50:23.068Z,32.88
2023-03-04T05:55:30.394Z,32.85
2023-03-04T06:00:37.752Z,32.70
2023-03-04T06:05:45.129Z,32.35
2023-03-04T06:10:52.538Z,32.17
2023-03-04T06:15:59.763Z,31.97
2023-03-04T06:21:07.013Z,31.61
2023-03-04T06:26:14.376Z,31.69
2023-03-04T06:31:21.591Z,31.79
2023-03-04T06:36:28.857Z,32.07
2023-03-04T06:41:36.192Z,32.23
2023-03-04T06:46:43.623Z,32.46
2023-03-04T06:51:50.830Z,32.68
2023-03-04T06:56:58.247Z,32.78
2023-03-04T07:02:05.504Z,33.20
2023-03-04T07:07:12.782Z,33.31
2023-03-04T07:12:20.072Z,33.41
2023-03-04T07:17:27.386Z,33.57
2023-03-04T07:22:34.731Z,33.77
2023-03-04T07:27:42.098Z,33.88
2023-03-04T07:32:49.641Z,33.98
2023-03-04T07:37:56.851Z,33.58
2023-03-04T07:43:04.245Z,33.36
2023-03-04T07:48:11.462Z,33.07
2023-03-04T07:53:18.802Z,33.00
2023-03-04T07:58:26.261Z,32.87
2023-03-04T08:03:33.605Z,32.76
2023-03-04T08:08:40.947Z,32.72
2023-03-04T08:13:48.348Z,32.78
2023-03-04T08:18:55.727Z,32.89
2023-03-04T08:24:03.058Z,32.97
2023-03-04T08:29:10.563Z,33.14
2023-03-04T08:34:17.823Z,33.49
2023-03-04T08:39:25.135Z,33.89
2023-03-04T08:44:32.434Z,33.88
2023-03-04T08:49:39.708Z,34.27
2023-03-04T08:54:46.992Z,34.39
2023-03-04T08:59:54.478Z,34.58
2023-03-04T09:05:01.733Z,34.51
2023-03-04T09:10:09.047Z,34.29
2023-03-04T09:15:16.332Z,33.88
2023-03-04T09:20:23.725Z,33.31
2023-03-04T09:25:31.050Z,32.97
2023-03-04T09:30:38.324Z,32.82
2023-03-04T09:35:45.679Z,32.64
2023-03-04T09:40:53.007Z,32.59
2023-03-04T09:46:00.331Z,32.55
2023-03-04T09:51:07.639Z,32.50
2023-03-04T09:56:14.903Z,32.67
2023-03-04T10:01:22.324Z,32.78
2023-03-04T10:06:29.683Z,32.62
2023-03-04T10:11:37.017Z,33.00
2023-03-04T10:16:44.356Z,33.00
2023-03-04T10:21:51.871Z,33.02
2023-03-04T10:26:59.256Z,33.42
2023-03-04T10:32:06.762Z,33.49
2023-03-04T10:37:14.277Z,33.88
2023-03-04T10:42:21.808Z,34.01
2023-03-04T10:47:29.006Z,33.97
2023-03-04T10:52:36.282Z,34.73
2023-03-04T10:57:43.813Z,35.26
2023-03-04T11:02:51.253Z,35.90
2023-03-04T11:07:58.680Z,35.68
2023-03-04T11:13:05.997Z,36.32
2023-03-04T11:18:13.391Z,35.53
2023-03-04T11:23:20.652Z,34.49
2023-03-04T11:28:27.977Z,34.30
2023-03-04T11:33:35.391Z,34.03
2023-03-04T11:38:42.687Z,33.71
2023-03-04T11:43:49.938Z,33.42
2023-03-04T11:48:57.397Z,33.10
2023-03-04T11:54:04.861Z,32.84
2023-03-04T11:59:12.585Z,32.52
2023-03-04T12:04:20.087Z,32.31
2023-03-04T12:09:27.396Z,32.13
2023-03-04T12:14:35.452Z,31.93
2023-03-04T12:19:42.940Z,31.78
2023-03-04T12:24:50.219Z,31.67
2023-03-04T12:29:57.395Z,31.49
2023-03-04T12:35:04.586Z,31.34
2023-03-04T12:40:11.753Z,31.17
2023-03-04T12:45:18.929Z,31.12
2023-03-04T12:50:26.106Z,31.06
2023-03-04T12:55:33.273Z,30.95
2023-03-04T13:00:40.486Z,31.20
2023-03-04T13:05:47.708Z,32.05
2023-03-04T13:10:54.850Z,31.91
2023-03-04T13:16:02.070Z,32.52
2023-03-04T13:21:09.259Z,32.05
2023-03-04T13:26:16.417Z,32.13
2023-03-04T13:31:23.701Z,31.69
2023-03-04T13:36:30.808Z,31.86
2023-03-04T13:41:37.986Z,31.93
2023-03-04T13:46:45.201Z,32.33
2023-03-04T13:51:52.535Z,32.20
2023-03-04T13:56:59.841Z,32.14
2023-03-04T14:02:07.161Z,31.82
2023-03-04T14:07:14.578Z,31.69
2023-03-04T14:12:21.858Z,31.66
2023-03-04T14:17:29.190Z,31.40
2023-03-04T14:22:36.397Z,31.26
2023-03-04T14:27:43.627Z,31.15
2023-03-04T14:32:50.840Z,30.97
2023-03-04T14:37:58.057Z,30.71
2023-03-04T14:43:05.237Z,30.55
2023-03-04T14:48:12.641Z,30.38
2023-03-04T14:53:20.292Z,30.26
2023-03-04T14:58:27.885Z,30.15
2023-03-04T15:03:35.266Z,30.07
2023-03-04T15:08:42.742Z,30.00
2023-03-04T15:13:50.006Z,29.93
2023-03-04T15:18:57.237Z,29.69
2023-03-04T15:24:04.513Z,29.63
2023-03-04T15:29:12.021Z,29.60
2023-03-04T15:34:19.369Z,29.59
2023-03-04T15:39:26.545Z,29.50
2023-03-04T15:44:33.778Z,29.55
2023-03-04T15:49:41.031Z,29.43
2023-03-04T15:54:48.332Z,29.40
2023-03-04T15:59:55.868Z,29.31
2023-03-04T16:05:03.313Z,29.37
2023-03-04T16:10:10.805Z,29.37
2023-03-04T16:15:18.393Z,29.37
2023-03-04T16:20:26.028Z,29.39
2023-03-04T16:25:33.448Z,29.39
2023-03-04T16:30:40.657Z,29.33
2023-03-04T16:35:48.159Z,29.82
2023-03-04T16:40:55.346Z,29.50
2023-03-04T16:46:02.725Z,29.50
2023-03-04T16:51:09.868Z,29.50
2023-03-04T16:56:17.184Z,29.31
2023-03-04T17:01:24.425Z,29.35
2023-03-04T17:06:31.873Z,29.39
2023-03-04T17:11:39.312Z,29.65
2023-03-04T17:16:46.798Z,29.21
2023-03-04T17:21:54.415Z,29.30
2023-03-04T17:27:02.150Z,29.61
2023-03-04T17:32:09.712Z,29.72
2023-03-04T17:37:17.014Z,29.37
2023-03-04T17:42:24.600Z,29.13
2023-03-04T17:47:32.916Z,29.37
2023-03-04T17:52:39.651Z,29.30
2023-03-04T17:57:47.135Z,29.21
2023-03-04T18:02:54.824Z,29.02
2023-03-04T18:08:02.437Z,29.11
2023-03-04T18:13:10.196Z,29.08
2023-03-04T18:18:17.762Z,29.08
2023-03-04T18:23:26.606Z,29.49
2023-03-04T18:28:34.248Z,29.47
2023-03-04T18:33:41.840Z,29.50
2023-03-04T18:38:49.461Z,29.23
2023-03-04T18:43:58.133Z,29.47
2023-03-04T18:49:05.817Z,29.49
2023-03-04T18:54:13.542Z,29.87
2023-03-04T18:59:21.268Z,29.95
2023-03-04T19:04:28.853Z,29.87
2023-03-04T19:09:36.491Z,29.83
2023-03-04T19:14:44.109Z,29.24
2023-03-04T19:19:51.418Z,29.65
2023-03-04T19:24:58.909Z,29.68
2023-03-04T19:30:06.336Z,29.68
2023-03-04T19:35:13.733Z,29.69
2023-03-04T19:40:21.340Z,29.72
2023-03-04T19:45:30.030Z,29.82
2023-03-04T19:50:37.533Z,29.81
2023-03-04T19:55:45.113Z,29.59
2023-03-04T20:00:52.800Z,29.11
2023-03-04T20:06:00.644Z,29.76
2023-03-04T20:11:08.413Z,29.29
2023-03-04T20:16:16.298Z,29.31
2023-03-04T20:21:23.791Z,28.67
2023-03-04T20:26:31.421Z,28.83
2023-03-04T20:31:39.043Z,28.48
2023-03-04T20:36:46.739Z,28.15
2023-03-04T20:41:54.360Z,27.67
2023-03-04T20:47:01.989Z,28.41
2023-03-04T20:52:09.310Z,28.90
2023-03-04T20:57:16.785Z,28.73
2023-03-04T21:02:24.354Z,27.74
2023-03-04T21:07:32.693Z,27.50
2023-03-04T21:12:39.989Z,27.18
2023-03-04T21:17:47.468Z,27.23
2023-03-04T21:22:54.840Z,27.32
2023-03-04T21:28:02.373Z,27.16
2023-03-04T21:33:10.131Z,26.87
2023-03-04T21:38:18.839Z,26.71
2023-03-04T21:43:26.157Z,26.58
2023-03-04T21:48:33.592Z,26.76
2023-03-04T21:53:40.964Z,26.47
2023-03-04T21:58:48.391Z,26.54
2023-03-04T22:03:56.417Z,26.40
2023-03-04T22:09:03.500Z,26.27
2023-03-04T22:14:10.750Z,26.05
2023-03-04T22:19:18.004Z,26.17
2023-03-04T22:24:25.156Z,25.89
2023-03-04T22:29:32.361Z,26.03
2023-03-04T22:34:39.556Z,26.09
2023-03-04T22:39:46.719Z,25.98
2023-03-04T22:44:53.970Z,25.77
2023-03-04T22:50:01.233Z,25.93
2023-03-04T22:55:08.380Z,26.01
2023-03-04T23:00:15.658Z,26.35
2023-03-04T23:05:22.985Z,26.11
2023-03-04T23:10:30.151Z,25.98
2023-03-04T23:15:37.414Z,26.17
2023-03-04T23:20:44.640Z,26.09
2023-03-04T23:25:51.844Z,25.96
2023-03-04T23:30:59.224Z,25.90
2023-03-04T23:36:06.289Z,26.15
2023-03-04T23:41:13.533Z,25.78
2023-03-04T23:46:21.432Z,25.80
2023-03-04T23:51:28.634Z,25.87
2023-03-04T23:56:35.783Z,26.01
